Time;durP1;ratioP1;P1;durP2;ratioP2;P2;SDS_P1;SDS_P2;PMS_P1;PMS_P2;Temp;Humidity;BMP_temperature;BMP_pressure;BME280_temperature;BME280_humidity;BME280_pressure;Samples;Min_cycle;Max_cycle;Signal;HPM_P1;HPM_P2
2022/06/04 00:00:04;;;;;;;3.03;2.30;;;;;;;;;;4953258;29;20235;-51
2022/06/04 00:02:30;;;;;;;4.20;2.60;;;;;;;;;;4953379;29;20211;-51
2022/06/04 00:04:59;;;;;;;4.43;2.90;;;;;;;;;;4952448;28;20204;-52
2022/06/04 00:07:25;;;;;;;4.00;2.70;;;;;;;;;;4952989;29;20576;-52
2022/06/04 00:15:33;;;;;;;2.90;2.60;;;;;;;;;;4953035;29;20195;-51
2022/06/04 00:17:59;;;;;;;3.90;2.70;;;;;;;;;;4953064;28;20218;-50
2022/06/04 00:20:26;;;;;;;2.93;2.63;;;;;;;;;;4953352;28;20231;-51
2022/06/04 00:22:57;;;;;;;3.60;2.80;;;;;;;;;;4953028;29;20741;-52
2022/06/04 00:25:23;;;;;;;3.40;3.07;;;;;;;;;;4952954;28;20674;-52
2022/06/04 00:27:50;;;;;;;4.43;2.63;;;;;;;;;;4952851;29;20659;-52
2022/06/04 00:30:16;;;;;;;2.80;2.47;;;;;;;;;;4953219;28;20226;-52
2022/06/04 00:32:42;;;;;;;3.10;2.80;;;;;;;;;;4952934;29;20231;-52
2022/06/04 00:35:09;;;;;;;2.90;2.70;;;;;;;;;;4953036;29;20211;-52
2022/06/04 00:37:36;;;;;;;5.50;3.00;;;;;;;;;;4952992;29;20203;-52
2022/06/04 00:40:03;;;;;;;4.37;3.00;;;;;;;;;;4952700;28;20718;-51
2022/06/04 00:42:29;;;;;;;4.10;3.03;;;;;;;;;;4953247;29;20630;-51
2022/06/04 00:45:13;;;;;;;4.45;3.40;;;;;;;;;;4951665;29;20452;-52
2022/06/04 00:47:40;;;;;;;3.47;2.80;;;;;;;;;;4951698;29;20773;-51
2022/06/04 00:50:08;;;;;;;3.40;3.07;;;;;;;;;;4952823;28;20486;-50
2022/06/04 00:52:34;;;;;;;4.37;3.10;;;;;;;;;;4952935;28;20203;-50
2022/06/04 00:55:03;;;;;;;3.23;2.80;;;;;;;;;;4952851;29;20204;-51
2022/06/04 00:57:39;;;;;;;3.50;3.03;;;;;;;;;;4953114;29;20250;-50
2022/06/04 01:00:06;;;;;;;5.10;2.73;;;;;;;;;;4952810;29;20227;-49
2022/06/04 01:02:36;;;;;;;3.80;2.73;;;;;;;;;;4952785;29;20200;-49
2022/06/04 01:05:05;;;;;;;2.97;2.67;;;;;;;;;;4952628;29;20302;-49
2022/06/04 01:07:38;;;;;;;4.40;3.20;;;;;;;;;;4952863;29;20199;-51
2022/06/04 01:10:12;;;;;;;3.10;2.90;;;;;;;;;;4952660;29;20199;-52
2022/06/04 01:12:44;;;;;;;4.37;2.90;;;;;;;;;;4952681;29;20323;-51
2022/06/04 01:15:14;;;;;;;3.20;2.90;;;;;;;;;;4952584;29;20294;-51
2022/06/04 01:17:48;;;;;;;4.97;2.77;;;;;;;;;;4952591;29;20590;-51
2022/06/04 01:20:17;;;;;;;2.90;2.70;;;;;;;;;;4952825;29;20231;-51
2022/06/04 01:22:55;;;;;;;4.27;3.10;;;;;;;;;;4952788;29;20283;-51
2022/06/04 01:25:26;;;;;;;3.47;3.17;;;;;;;;;;4953482;28;20262;-51
2022/06/04 01:27:58;;;;;;;3.27;2.50;;;;;;;;;;4956031;28;20689;-51
2022/06/04 01:30:26;;;;;;;3.20;2.90;;;;;;;;;;4956105;28;20207;-49
2022/06/04 01:32:55;;;;;;;3.97;2.93;;;;;;;;;;4956227;28;20564;-51
2022/06/04 01:35:24;;;;;;;4.20;3.20;;;;;;;;;;4955763;28;20213;-50
2022/06/04 01:37:50;;;;;;;3.27;2.77;;;;;;;;;;4955950;28;20250;-51
2022/06/04 01:43:07;;;;;;;3.80;3.23;;;;;;;;;;4955789;29;20283;-51
2022/06/04 01:45:34;;;;;;;3.23;2.87;;;;;;;;;;4955767;28;20214;-49
2022/06/04 01:48:01;;;;;;;4.17;3.00;;;;;;;;;;4955982;29;20199;-50
2022/06/04 01:50:29;;;;;;;3.50;3.20;;;;;;;;;;4955569;29;20676;-51
2022/06/04 01:52:57;;;;;;;4.27;2.80;;;;;;;;;;4955600;28;20215;-49
2022/06/04 01:55:26;;;;;;;3.27;2.97;;;;;;;;;;4955508;28;20282;-53
2022/06/04 01:57:54;;;;;;;3.60;3.20;;;;;;;;;;4954361;28;20425;-51
2022/06/04 02:00:23;;;;;;;3.40;3.10;;;;;;;;;;4954233;28;20442;-50
2022/06/04 02:02:52;;;;;;;3.78;3.25;;;;;;;;;;4954133;28;20417;-51
2022/06/04 02:05:22;;;;;;;3.85;3.45;;;;;;;;;;4954192;29;20429;-50
2022/06/04 02:07:49;;;;;;;3.58;3.25;;;;;;;;;;4954321;29;20417;-51
2022/06/04 02:10:18;;;;;;;3.63;3.22;;;;;;;;;;4954114;29;20413;-49
2022/06/04 02:12:48;;;;;;;5.10;3.03;;;;;;;;;;4955267;28;20332;-52
2022/06/04 02:15:16;;;;;;;4.82;3.40;;;;;;;;;;4953903;28;20464;-52
2022/06/04 02:17:45;;;;;;;4.45;3.22;;;;;;;;;;4954072;28;20773;-52
2022/06/04 02:20:12;;;;;;;3.80;3.10;;;;;;;;;;4953924;28;20418;-51
2022/06/04 02:22:38;;;;;;;3.28;2.97;;;;;;;;;;4953766;28;20544;-51
2022/06/04 02:25:05;;;;;;;4.53;3.30;;;;;;;;;;4953771;28;20768;-50
2022/06/04 02:27:31;;;;;;;4.55;3.50;;;;;;;;;;4953759;29;20425;-51
2022/06/04 02:29:57;;;;;;;3.30;3.00;;;;;;;;;;4954833;29;20242;-50
2022/06/04 02:32:27;;;;;;;3.37;3.00;;;;;;;;;;4954853;29;20183;-50
2022/06/04 02:34:58;;;;;;;3.13;2.90;;;;;;;;;;4955112;28;20200;-50
2022/06/04 02:37:26;;;;;;;4.57;3.50;;;;;;;;;;4954429;28;20266;-51
2022/06/04 02:39:55;;;;;;;3.90;3.53;;;;;;;;;;4954492;29;20232;-51
2022/06/04 02:42:25;;;;;;;5.13;3.30;;;;;;;;;;4954728;29;20207;-50
2022/06/04 02:44:52;;;;;;;4.77;3.70;;;;;;;;;;4954831;29;20223;-50
2022/06/04 02:47:19;;;;;;;3.77;3.37;;;;;;;;;;4954421;29;20345;-51
2022/06/04 02:49:48;;;;;;;3.63;3.23;;;;;;;;;;4954767;29;20195;-49
2022/06/04 02:52:16;;;;;;;5.87;3.73;;;;;;;;;;4954579;29;20299;-51
2022/06/04 02:54:46;;;;;;;4.70;3.67;;;;;;;;;;4954372;29;20210;-49
2022/06/04 02:57:12;;;;;;;4.37;3.70;;;;;;;;;;4954318;28;20202;-50
2022/06/04 02:59:40;;;;;;;4.33;3.80;;;;;;;;;;4954497;29;20593;-51
2022/06/04 03:02:06;;;;;;;4.70;3.47;;;;;;;;;;4954087;29;20566;-50
2022/06/04 03:04:40;;;;;;;5.27;3.57;;;;;;;;;;4954270;28;20225;-51
2022/06/04 03:07:06;;;;;;;3.93;3.50;;;;;;;;;;4954227;29;20203;-51
2022/06/04 03:09:33;;;;;;;4.23;3.80;;;;;;;;;;4954196;29;20203;-50
2022/06/04 03:11:59;;;;;;;5.13;3.87;;;;;;;;;;4954101;29;20279;-49
2022/06/04 03:14:26;;;;;;;4.57;3.73;;;;;;;;;;4954180;29;20223;-49
2022/06/04 03:16:51;;;;;;;5.83;3.83;;;;;;;;;;4954178;29;20199;-49
2022/06/04 03:19:18;;;;;;;3.90;3.60;;;;;;;;;;4953788;29;20754;-50
2022/06/04 03:21:44;;;;;;;5.47;4.10;;;;;;;;;;4954137;29;20203;-49
2022/06/04 03:24:11;;;;;;;5.10;4.20;;;;;;;;;;4953793;28;20207;-51
2022/06/04 03:26:38;;;;;;;6.43;4.53;;;;;;;;;;4953939;28;20225;-49
2022/06/04 03:29:04;;;;;;;5.23;4.30;;;;;;;;;;4953750;29;20661;-52
2022/06/04 03:31:31;;;;;;;4.73;4.27;;;;;;;;;;4953630;29;20622;-50
2022/06/04 03:33:57;;;;;;;5.90;4.07;;;;;;;;;;4953919;29;20237;-52
2022/06/04 03:36:25;;;;;;;5.57;4.43;;;;;;;;;;4953545;29;20639;-50
2022/06/04 03:38:51;;;;;;;4.90;4.50;;;;;;;;;;4953664;28;20207;-52
2022/06/04 03:41:17;;;;;;;4.37;3.77;;;;;;;;;;4953715;28;20200;-53
2022/06/04 03:43:47;;;;;;;5.70;4.63;;;;;;;;;;4953535;29;20192;-52
2022/06/04 03:46:13;;;;;;;5.53;4.40;;;;;;;;;;4953338;28;20579;-52
2022/06/04 03:48:40;;;;;;;4.90;4.20;;;;;;;;;;4953176;28;20580;-51
2022/06/04 03:51:06;;;;;;;5.80;4.27;;;;;;;;;;4953398;29;20195;-52
2022/06/04 03:53:32;;;;;;;4.70;4.30;;;;;;;;;;4953310;29;20207;-52
2022/06/04 03:55:58;;;;;;;6.07;5.30;;;;;;;;;;4953596;29;20543;-52
2022/06/04 03:58:29;;;;;;;7.10;5.13;;;;;;;;;;4953161;29;20208;-52
2022/06/04 04:00:57;;;;;;;5.70;4.63;;;;;;;;;;4953237;28;20238;-51
2022/06/04 04:03:24;;;;;;;5.60;4.77;;;;;;;;;;4953360;29;20210;-53
2022/06/04 04:05:51;;;;;;;6.13;4.83;;;;;;;;;;4953288;29;20259;-52
2022/06/04 04:08:18;;;;;;;5.47;4.97;;;;;;;;;;4953165;29;20627;-52
2022/06/04 04:10:45;;;;;;;5.67;5.10;;;;;;;;;;4953511;28;20203;-53
2022/06/04 04:13:11;;;;;;;5.43;4.90;;;;;;;;;;4953108;29;20202;-52
2022/06/04 04:15:38;;;;;;;4.90;4.47;;;;;;;;;;4953484;29;20566;-53
2022/06/04 04:18:06;;;;;;;5.27;4.77;;;;;;;;;;4953276;28;20187;-51
2022/06/04 04:20:33;;;;;;;6.63;4.87;;;;;;;;;;4952997;29;20318;-51
2022/06/04 04:23:00;;;;;;;5.57;4.70;;;;;;;;;;4953182;29;20749;-52
2022/06/04 04:25:27;;;;;;;5.80;4.63;;;;;;;;;;4953102;28;20219;-53
2022/06/04 04:27:53;;;;;;;4.97;4.47;;;;;;;;;;4952872;29;20196;-52
2022/06/04 04:30:20;;;;;;;6.13;4.80;;;;;;;;;;4953253;29;20202;-52
2022/06/04 04:32:46;;;;;;;6.10;5.03;;;;;;;;;;4952965;29;20286;-53
2022/06/04 04:35:15;;;;;;;6.40;4.87;;;;;;;;;;4952953;29;20726;-54
2022/06/04 04:37:42;;;;;;;6.90;4.50;;;;;;;;;;4953305;29;20200;-50
2022/06/04 04:40:08;;;;;;;5.37;4.87;;;;;;;;;;4952951;28;20262;-53
2022/06/04 04:42:34;;;;;;;7.10;5.30;;;;;;;;;;4952858;29;20199;-52
2022/06/04 04:45:00;;;;;;;5.87;5.20;;;;;;;;;;4953185;29;20196;-52
2022/06/04 04:47:26;;;;;;;5.07;4.57;;;;;;;;;;4953020;28;20607;-51
2022/06/04 04:49:52;;;;;;;5.67;5.07;;;;;;;;;;4952981;29;20188;-52
2022/06/04 04:52:19;;;;;;;9.43;5.07;;;;;;;;;;4952738;29;20199;-51
2022/06/04 04:54:45;;;;;;;7.37;4.90;;;;;;;;;;4952829;28;20212;-52
2022/06/04 04:57:12;;;;;;;10.47;5.30;;;;;;;;;;4952946;29;20203;-52
2022/06/04 04:59:38;;;;;;;5.77;4.60;;;;;;;;;;4952698;28;20242;-52
2022/06/04 05:02:04;;;;;;;7.53;4.90;;;;;;;;;;4956711;29;20231;-53
2022/06/04 05:04:30;;;;;;;5.93;4.70;;;;;;;;;;4956383;29;20655;-51
2022/06/04 05:06:56;;;;;;;5.40;4.63;;;;;;;;;;4956488;29;20577;-52
2022/06/04 05:09:23;;;;;;;5.70;5.00;;;;;;;;;;4956497;29;20200;-52
2022/06/04 05:11:49;;;;;;;4.90;4.40;;;;;;;;;;4956419;29;20216;-52
2022/06/04 05:14:15;;;;;;;5.20;4.70;;;;;;;;;;4956375;28;20214;-53
2022/06/04 05:16:42;;;;;;;5.43;4.73;;;;;;;;;;4956202;28;20562;-52
2022/06/04 05:19:08;;;;;;;5.53;5.03;;;;;;;;;;4956361;29;20670;-52
2022/06/04 05:21:40;;;;;;;8.87;5.17;;;;;;;;;;4955857;29;20200;-51
2022/06/04 05:24:06;;;;;;;7.93;5.10;;;;;;;;;;4956241;29;20208;-51
2022/06/04 05:26:34;;;;;;;6.57;5.73;;;;;;;;;;4955908;28;20279;-51
2022/06/04 05:29:00;;;;;;;6.10;4.90;;;;;;;;;;4956059;29;20239;-52
2022/06/04 05:31:26;;;;;;;5.73;4.80;;;;;;;;;;4955795;29;20200;-51
2022/06/04 05:33:52;;;;;;;6.00;4.20;;;;;;;;;;4956069;29;20195;-52
2022/06/04 05:36:18;;;;;;;6.13;5.27;;;;;;;;;;4955778;29;20619;-51
2022/06/04 05:38:44;;;;;;;6.67;4.50;;;;;;;;;;4955939;29;20200;-51
2022/06/04 05:41:11;;;;;;;6.27;4.93;;;;;;;;;;4955841;29;20347;-51
2022/06/04 05:43:41;;;;;;;5.03;4.53;;;;;;;;;;4955680;29;20199;-51
2022/06/04 05:46:08;;;;;;;5.20;4.70;;;;;;;;;;4955591;29;20666;-51
2022/06/04 05:48:36;;;;;;;6.90;4.70;;;;;;;;;;4955798;29;20203;-51
2022/06/04 05:51:02;;;;;;;5.57;5.00;;;;;;;;;;4955835;29;20199;-51
2022/06/04 05:53:28;;;;;;;5.53;4.43;;;;;;;;;;4954225;29;20302;-53
2022/06/04 05:55:55;;;;;;;8.43;4.17;;;;;;;;;;4955805;29;20282;-51
2022/06/04 05:58:21;;;;;;;5.63;4.60;;;;;;;;;;4955318;29;20343;-51
2022/06/04 06:00:48;;;;;;;5.17;4.67;;;;;;;;;;4955287;29;20670;-52
2022/06/04 06:03:14;;;;;;;5.40;4.40;;;;;;;;;;4955595;29;20298;-52
2022/06/04 06:05:42;;;;;;;6.10;4.23;;;;;;;;;;4955236;29;20729;-51
2022/06/04 06:08:08;;;;;;;5.53;4.57;;;;;;;;;;4955479;29;20251;-53
2022/06/04 06:10:38;;;;;;;6.63;4.33;;;;;;;;;;4954945;28;20204;-52
2022/06/04 06:13:04;;;;;;;4.07;3.63;;;;;;;;;;4955297;29;20211;-52
2022/06/04 06:15:30;;;;;;;5.33;4.00;;;;;;;;;;4955158;29;20567;-53
2022/06/04 06:17:57;;;;;;;4.77;3.90;;;;;;;;;;4955325;29;20210;-53
2022/06/04 06:20:23;;;;;;;4.20;3.40;;;;;;;;;;4954911;29;20235;-53
2022/06/04 06:22:49;;;;;;;4.33;3.73;;;;;;;;;;4955259;29;20187;-52
2022/06/04 06:25:16;;;;;;;7.40;3.90;;;;;;;;;;4955043;28;20652;-52
2022/06/04 06:27:42;;;;;;;5.60;4.00;;;;;;;;;;4954771;28;20207;-52
2022/06/04 06:30:09;;;;;;;5.00;3.80;;;;;;;;;;4954758;29;20254;-51
2022/06/04 06:32:35;;;;;;;6.13;3.80;;;;;;;;;;4954681;28;20215;-52
2022/06/04 06:35:02;;;;;;;5.57;4.30;;;;;;;;;;4954962;29;20289;-53
2022/06/04 06:37:28;;;;;;;5.10;3.90;;;;;;;;;;4954801;29;20205;-51
2022/06/04 06:39:55;;;;;;;5.80;3.80;;;;;;;;;;4954645;29;20243;-53
2022/06/04 06:42:22;;;;;;;4.77;3.70;;;;;;;;;;4954568;28;20283;-52
2022/06/04 06:44:48;;;;;;;6.17;3.93;;;;;;;;;;4954915;29;20288;-52
2022/06/04 06:47:14;;;;;;;6.77;3.87;;;;;;;;;;4954567;29;20252;-51
2022/06/04 06:49:40;;;;;;;4.33;3.93;;;;;;;;;;4954626;29;20201;-52
2022/06/04 06:52:09;;;;;;;4.83;4.03;;;;;;;;;;4954357;29;20428;-51
2022/06/04 06:54:36;;;;;;;4.40;3.47;;;;;;;;;;4954258;28;20554;-52
2022/06/04 06:57:02;;;;;;;8.80;3.90;;;;;;;;;;4954381;29;20551;-52
2022/06/04 06:59:29;;;;;;;4.40;4.00;;;;;;;;;;4954229;29;20233;-53
2022/06/04 07:01:55;;;;;;;5.57;3.80;;;;;;;;;;4954432;28;20207;-53
2022/06/04 07:04:21;;;;;;;5.30;4.07;;;;;;;;;;4954193;29;20571;-53
2022/06/04 07:06:48;;;;;;;4.40;3.23;;;;;;;;;;4954135;28;20277;-53
2022/06/04 07:09:16;;;;;;;5.90;3.70;;;;;;;;;;4954377;29;20207;-52
2022/06/04 07:11:43;;;;;;;3.97;3.30;;;;;;;;;;4954009;29;20306;-53
2022/06/04 07:14:09;;;;;;;4.80;3.57;;;;;;;;;;4953922;29;20203;-52
2022/06/04 07:16:35;;;;;;;6.00;3.60;;;;;;;;;;4954039;29;20199;-53
2022/06/04 07:19:02;;;;;;;3.70;3.30;;;;;;;;;;4952473;28;20195;-52
2022/06/04 07:21:28;;;;;;;6.30;3.97;;;;;;;;;;4954017;28;20231;-53
2022/06/04 07:23:55;;;;;;;3.83;3.30;;;;;;;;;;4953249;28;20259;-52
2022/06/04 07:26:22;;;;;;;3.87;3.40;;;;;;;;;;4953919;28;20215;-53
2022/06/04 07:28:48;;;;;;;5.13;3.43;;;;;;;;;;4953778;28;20585;-52
2022/06/04 07:31:15;;;;;;;6.90;3.60;;;;;;;;;;4953325;28;20640;-53
2022/06/04 07:33:42;;;;;;;4.60;3.63;;;;;;;;;;4953289;28;20231;-52
2022/06/04 07:36:08;;;;;;;5.40;3.07;;;;;;;;;;4953942;28;20208;-52
2022/06/04 07:38:34;;;;;;;5.63;3.57;;;;;;;;;;4953517;29;20191;-53
2022/06/04 07:41:00;;;;;;;4.40;3.13;;;;;;;;;;4954054;29;20228;-52
2022/06/04 07:43:27;;;;;;;4.37;3.50;;;;;;;;;;4953221;29;20214;-53
2022/06/04 07:45:53;;;;;;;3.80;2.90;;;;;;;;;;4953300;29;20208;-54
2022/06/04 07:48:19;;;;;;;5.53;3.20;;;;;;;;;;4953819;29;20232;-53
2022/06/04 07:50:45;;;;;;;3.93;3.17;;;;;;;;;;4953193;29;20219;-52
2022/06/04 07:53:11;;;;;;;6.17;3.80;;;;;;;;;;4953658;29;20196;-52
2022/06/04 07:55:39;;;;;;;4.70;3.20;;;;;;;;;;4953244;29;20262;-52
2022/06/04 07:58:05;;;;;;;4.50;3.23;;;;;;;;;;4953733;28;20216;-53
2022/06/04 08:00:37;;;;;;;4.93;3.23;;;;;;;;;;4953545;29;20234;-53
2022/06/04 08:03:03;;;;;;;6.10;3.03;;;;;;;;;;4953913;28;20233;-52
2022/06/04 08:05:29;;;;;;;4.23;3.40;;;;;;;;;;4953417;29;20227;-52
2022/06/04 08:07:55;;;;;;;6.07;3.33;;;;;;;;;;4953714;29;20211;-52
2022/06/04 08:10:21;;;;;;;4.70;3.33;;;;;;;;;;4953384;29;20622;-53
2022/06/04 08:12:51;;;;;;;4.23;3.83;;;;;;;;;;4953417;28;20279;-53
2022/06/04 08:15:17;;;;;;;4.60;3.20;;;;;;;;;;4953530;28;20196;-53
2022/06/04 08:17:46;;;;;;;3.70;3.10;;;;;;;;;;4953355;29;20211;-53
2022/06/04 08:20:12;;;;;;;5.17;3.00;;;;;;;;;;4953270;28;20699;-51
2022/06/04 08:22:38;;;;;;;3.40;2.90;;;;;;;;;;4953339;29;20200;-51
2022/06/04 08:25:05;;;;;;;4.07;3.07;;;;;;;;;;4953150;28;20686;-50
2022/06/04 08:27:31;;;;;;;5.17;3.20;;;;;;;;;;4953332;28;20204;-52
2022/06/04 08:29:57;;;;;;;5.40;3.60;;;;;;;;;;4952691;28;20245;-53
2022/06/04 08:32:23;;;;;;;5.40;3.50;;;;;;;;;;4951403;28;20192;-49
2022/06/04 08:34:50;;;;;;;5.17;3.40;;;;;;;;;;4955318;28;20205;-50
2022/06/04 08:37:16;;;;;;;4.80;2.83;;;;;;;;;;4955515;28;20626;-51
2022/06/04 08:39:42;;;;;;;4.60;3.17;;;;;;;;;;4956679;29;20226;-50
2022/06/04 08:42:17;;;;;;;4.10;2.83;;;;;;;;;;4956990;29;20248;-53
2022/06/04 08:44:45;;;;;;;4.73;3.33;;;;;;;;;;4957143;29;20255;-53
2022/06/04 08:47:14;;;;;;;5.90;3.13;;;;;;;;;;4957013;29;20236;-54
2022/06/04 08:49:42;;;;;;;3.27;2.80;;;;;;;;;;4956823;29;20278;-55
2022/06/04 08:52:12;;;;;;;3.97;2.87;;;;;;;;;;4957070;28;20559;-55
2022/06/04 08:57:33;;;;;;;3.93;2.93;;;;;;;;;;4956770;29;20261;-55
2022/06/04 09:00:01;;;;;;;3.30;3.00;;;;;;;;;;4956425;29;20229;-53
2022/06/04 09:02:32;;;;;;;4.83;3.43;;;;;;;;;;4956448;29;20689;-53
2022/06/04 09:05:02;;;;;;;4.37;3.27;;;;;;;;;;4956548;29;20662;-54
2022/06/04 09:07:34;;;;;;;6.00;3.27;;;;;;;;;;4956657;29;20290;-54
2022/06/04 09:10:05;;;;;;;3.07;2.77;;;;;;;;;;4956691;28;20206;-54
2022/06/04 09:12:35;;;;;;;5.00;3.00;;;;;;;;;;4954615;28;20218;-54
2022/06/04 09:15:02;;;;;;;5.13;2.87;;;;;;;;;;4956290;28;20199;-51
2022/06/04 09:17:34;;;;;;;3.80;3.10;;;;;;;;;;4955954;29;20203;-51
2022/06/04 09:20:00;;;;;;;5.73;3.20;;;;;;;;;;4955861;29;20897;-54
2022/06/04 09:22:33;;;;;;;3.63;2.77;;;;;;;;;;4956152;29;20209;-51
2022/06/04 09:24:58;;;;;;;3.47;2.77;;;;;;;;;;4955938;28;20267;-51
2022/06/04 09:27:30;;;;;;;4.30;2.80;;;;;;;;;;4955891;29;20203;-52
2022/06/04 09:30:02;;;;;;;5.90;2.63;;;;;;;;;;4955481;29;20681;-52
2022/06/04 09:32:44;;;;;;;4.30;3.13;;;;;;;;;;4955873;29;20299;-51
2022/06/04 09:35:10;;;;;;;5.43;2.73;;;;;;;;;;4955918;28;20195;-51
2022/06/04 09:37:42;;;;;;;4.37;2.70;;;;;;;;;;4955530;29;20238;-51
2022/06/04 09:40:17;;;;;;;4.90;3.10;;;;;;;;;;4955558;29;20231;-54
2022/06/04 09:42:43;;;;;;;6.20;2.77;;;;;;;;;;4955365;29;20218;-54
2022/06/04 09:45:18;;;;;;;3.83;2.73;;;;;;;;;;4955836;28;20596;-54
2022/06/04 09:47:45;;;;;;;4.50;2.93;;;;;;;;;;4955366;29;20225;-52
2022/06/04 09:50:19;;;;;;;5.67;3.10;;;;;;;;;;4956074;28;20617;-52
2022/06/04 09:52:56;;;;;;;4.33;2.70;;;;;;;;;;4954289;29;20206;-52
2022/06/04 09:55:24;;;;;;;4.13;2.53;;;;;;;;;;4953708;29;20207;-52
2022/06/04 09:57:56;;;;;;;4.93;2.77;;;;;;;;;;4953726;28;20257;-52
2022/06/04 10:00:24;;;;;;;3.47;2.53;;;;;;;;;;4953994;29;20577;-52
2022/06/04 10:02:53;;;;;;;4.10;3.03;;;;;;;;;;4953648;29;20204;-52
2022/06/04 10:05:20;;;;;;;4.73;2.93;;;;;;;;;;4953663;29;20205;-52
2022/06/04 10:07:48;;;;;;;5.80;3.10;;;;;;;;;;4954569;29;20212;-52
2022/06/04 10:10:21;;;;;;;6.00;3.23;;;;;;;;;;4955229;29;20202;-52
2022/06/04 10:15:38;;;;;;;3.30;2.93;;;;;;;;;;4954970;29;20760;-52
2022/06/04 10:18:06;;;;;;;4.40;3.53;;;;;;;;;;4954803;29;20511;-56
2022/06/04 10:20:32;;;;;;;3.70;2.97;;;;;;;;;;4954872;29;20229;-52
2022/06/04 10:23:00;;;;;;;4.30;2.80;;;;;;;;;;4954973;28;20225;-52
2022/06/04 10:25:32;;;;;;;4.75;3.05;;;;;;;;;;4953477;28;20840;-52
2022/06/04 10:28:07;;;;;;;9.50;2.97;;;;;;;;;;4954528;29;20207;-52
2022/06/04 10:30:37;;;;;;;3.73;3.00;;;;;;;;;;4955002;28;20253;-52
2022/06/04 10:33:14;;;;;;;5.70;3.00;;;;;;;;;;4954733;28;20201;-52
2022/06/04 10:35:57;;;;;;;4.67;2.97;;;;;;;;;;4954630;28;20802;-52
2022/06/04 10:38:33;;;;;;;4.03;3.23;;;;;;;;;;4955049;28;20200;-53
2022/06/04 10:41:07;;;;;;;3.93;2.83;;;;;;;;;;4954434;29;20231;-53
2022/06/04 10:43:42;;;;;;;3.33;2.83;;;;;;;;;;4954463;29;20200;-53
2022/06/04 10:46:13;;;;;;;3.83;3.13;;;;;;;;;;4954171;29;20208;-52
2022/06/04 10:48:48;;;;;;;3.13;2.70;;;;;;;;;;4954277;29;20625;-53
2022/06/04 10:51:28;;;;;;;4.13;2.80;;;;;;;;;;4954373;29;20208;-52
2022/06/04 10:54:00;;;;;;;3.90;2.97;;;;;;;;;;4954376;29;20221;-53
2022/06/04 10:56:29;;;;;;;5.63;3.30;;;;;;;;;;4954476;29;20211;-52
2022/06/04 10:59:00;;;;;;;4.80;2.80;;;;;;;;;;4953072;28;20204;-53
2022/06/04 11:01:28;;;;;;;4.70;2.60;;;;;;;;;;4953959;28;20229;-53
2022/06/04 11:04:01;;;;;;;4.20;2.50;;;;;;;;;;4954219;28;20267;-52
2022/06/04 11:06:28;;;;;;;4.53;2.80;;;;;;;;;;4954337;28;20203;-53
2022/06/04 11:08:56;;;;;;;6.53;2.50;;;;;;;;;;4954270;29;20197;-56
2022/06/04 11:11:26;;;;;;;4.73;2.90;;;;;;;;;;4953986;29;20199;-52
2022/06/04 11:13:54;;;;;;;4.03;2.90;;;;;;;;;;4953806;29;20206;-53
2022/06/04 11:16:25;;;;;;;4.13;2.40;;;;;;;;;;4954062;29;20250;-53
2022/06/04 11:18:54;;;;;;;4.67;3.00;;;;;;;;;;4953985;29;20203;-53
2022/06/04 11:21:22;;;;;;;3.90;2.60;;;;;;;;;;4953916;28;20651;-52
2022/06/04 11:23:51;;;;;;;3.53;2.67;;;;;;;;;;4953781;29;20209;-53
2022/06/04 11:26:20;;;;;;;3.33;2.23;;;;;;;;;;4953846;28;20228;-53
2022/06/04 11:28:48;;;;;;;3.67;2.20;;;;;;;;;;4953923;29;20236;-53
2022/06/04 11:31:19;;;;;;;3.33;2.80;;;;;;;;;;4954055;29;20196;-53
2022/06/04 11:33:52;;;;;;;2.70;2.10;;;;;;;;;;4953888;29;20677;-53
2022/06/04 11:36:24;;;;;;;2.97;2.57;;;;;;;;;;4954064;29;20284;-53
2022/06/04 11:39:02;;;;;;;4.27;2.57;;;;;;;;;;4953976;28;20210;-53
2022/06/04 11:41:31;;;;;;;6.30;2.40;;;;;;;;;;4953896;29;20239;-53
2022/06/04 11:44:10;;;;;;;3.70;2.90;;;;;;;;;;4953830;29;20224;-53
2022/06/04 11:46:41;;;;;;;5.87;3.10;;;;;;;;;;4953873;29;20206;-53
2022/06/04 11:49:21;;;;;;;3.37;2.90;;;;;;;;;;4953617;29;20208;-53
2022/06/04 11:51:58;;;;;;;8.87;3.07;;;;;;;;;;4953840;29;20202;-53
2022/06/04 11:54:44;;;;;;;4.60;2.83;;;;;;;;;;4953494;29;20657;-53
2022/06/04 11:57:13;;;;;;;3.70;3.07;;;;;;;;;;4953840;29;20669;-53
2022/06/04 11:59:46;;;;;;;4.03;2.93;;;;;;;;;;4953476;29;20672;-53
2022/06/04 12:02:15;;;;;;;5.40;3.60;;;;;;;;;;4953733;29;20210;-54
2022/06/04 12:04:44;;;;;;;4.40;3.77;;;;;;;;;;4953435;28;20204;-54
2022/06/04 12:07:14;;;;;;;5.17;3.17;;;;;;;;;;4953561;28;20262;-54
2022/06/04 12:09:44;;;;;;;3.70;3.07;;;;;;;;;;4953093;28;20198;-54
2022/06/04 12:12:13;;;;;;;4.03;2.90;;;;;;;;;;4953671;29;20222;-54
2022/06/04 12:14:41;;;;;;;3.10;2.40;;;;;;;;;;4953558;28;20206;-54
2022/06/04 12:17:15;;;;;;;4.10;3.00;;;;;;;;;;4953227;28;20612;-53
2022/06/04 12:25:15;;;;;;;4.30;2.77;;;;;;;;;;4953408;28;20707;-54
2022/06/04 12:27:54;;;;;;;4.93;2.80;;;;;;;;;;4953443;29;20234;-53
2022/06/04 12:30:30;;;;;;;3.37;2.70;;;;;;;;;;4953411;29;20266;-53
2022/06/04 12:32:58;;;;;;;4.13;2.60;;;;;;;;;;4953171;29;20549;-53
2022/06/04 12:35:24;;;;;;;4.07;3.07;;;;;;;;;;4953659;28;20228;-53
2022/06/04 12:37:53;;;;;;;5.00;3.67;;;;;;;;;;4953232;28;20206;-53
2022/06/04 12:40:31;;;;;;;3.40;2.80;;;;;;;;;;4953269;29;20337;-53
2022/06/04 12:42:58;;;;;;;4.43;3.20;;;;;;;;;;4953196;29;20216;-53
2022/06/04 12:45:35;;;;;;;4.97;3.57;;;;;;;;;;4953192;28;20202;-53
2022/06/04 12:48:18;;;;;;;4.53;2.90;;;;;;;;;;4953090;28;20200;-53
2022/06/04 12:50:47;;;;;;;4.30;3.03;;;;;;;;;;4951407;28;20673;-53
2022/06/04 12:53:16;;;;;;;4.83;3.00;;;;;;;;;;4953018;29;20624;-53
2022/06/04 12:55:46;;;;;;;4.13;3.23;;;;;;;;;;4953120;29;20288;-53
2022/06/04 12:58:25;;;;;;;4.20;2.80;;;;;;;;;;4952758;29;20339;-53
2022/06/04 13:00:55;;;;;;;4.07;3.10;;;;;;;;;;4952746;29;20619;-53
2022/06/04 13:03:29;;;;;;;5.33;3.70;;;;;;;;;;4952867;28;20209;-53
2022/06/04 13:05:59;;;;;;;5.70;3.17;;;;;;;;;;4952836;29;20210;-53
2022/06/04 13:08:31;;;;;;;3.63;2.97;;;;;;;;;;4952475;29;20654;-53
2022/06/04 13:11:01;;;;;;;3.80;3.30;;;;;;;;;;4952323;29;20237;-53
2022/06/04 13:13:34;;;;;;;4.67;2.50;;;;;;;;;;4952893;29;20659;-53
2022/06/04 13:16:04;;;;;;;6.53;3.00;;;;;;;;;;4952676;29;20205;-54
2022/06/04 13:18:33;;;;;;;4.20;2.70;;;;;;;;;;4952934;28;20570;-54
2022/06/04 13:21:00;;;;;;;5.70;2.83;;;;;;;;;;4953312;28;20258;-54
2022/06/04 13:23:29;;;;;;;3.13;2.83;;;;;;;;;;4956235;29;20220;-54
2022/06/04 13:26:00;;;;;;;3.47;2.50;;;;;;;;;;4954552;28;20247;-53
2022/06/04 13:28:27;;;;;;;4.53;3.10;;;;;;;;;;4956294;29;20269;-53
2022/06/04 13:30:54;;;;;;;6.53;2.70;;;;;;;;;;4956269;29;20335;-54
2022/06/04 13:33:20;;;;;;;3.40;2.73;;;;;;;;;;4954296;28;20676;-54
2022/06/04 13:35:49;;;;;;;4.13;2.90;;;;;;;;;;4956287;29;20244;-55
2022/06/04 13:38:21;;;;;;;3.13;2.50;;;;;;;;;;4956042;29;20628;-55
2022/06/04 13:40:47;;;;;;;4.13;2.60;;;;;;;;;;4956232;28;20738;-55
2022/06/04 13:43:13;;;;;;;3.20;2.60;;;;;;;;;;4955959;29;20309;-55
2022/06/04 13:45:40;;;;;;;4.17;2.73;;;;;;;;;;4956114;29;20209;-55
2022/06/04 13:48:13;;;;;;;3.23;2.60;;;;;;;;;;4955874;28;20206;-52
2022/06/04 13:50:47;;;;;;;3.00;2.43;;;;;;;;;;4953758;29;20730;-55
2022/06/04 13:53:16;;;;;;;3.70;2.47;;;;;;;;;;4955506;29;20206;-55
2022/06/04 13:55:45;;;;;;;3.03;2.60;;;;;;;;;;4955434;28;20205;-55
2022/06/04 13:58:12;;;;;;;4.90;2.80;;;;;;;;;;4955300;28;20220;-55
2022/06/04 14:00:39;;;;;;;4.33;2.60;;;;;;;;;;4955698;28;20700;-55
2022/06/04 14:03:11;;;;;;;3.07;2.40;;;;;;;;;;4955161;29;20202;-55
2022/06/04 14:05:47;;;;;;;4.13;2.50;;;;;;;;;;4955255;29;20757;-55
2022/06/04 14:08:16;;;;;;;2.87;2.43;;;;;;;;;;4955286;28;20198;-55
2022/06/04 14:10:43;;;;;;;4.83;2.33;;;;;;;;;;4955170;29;20262;-55
2022/06/04 14:13:12;;;;;;;3.83;2.50;;;;;;;;;;4955251;28;20205;-55
2022/06/04 14:15:46;;;;;;;3.30;2.50;;;;;;;;;;4955112;29;20718;-55
2022/06/04 14:18:22;;;;;;;3.83;2.40;;;;;;;;;;4955135;29;20265;-54
2022/06/04 14:20:54;;;;;;;2.80;2.30;;;;;;;;;;4955183;28;20299;-54
2022/06/04 14:23:30;;;;;;;3.30;2.70;;;;;;;;;;4955190;29;20211;-55
2022/06/04 14:26:02;;;;;;;2.87;2.57;;;;;;;;;;4954808;28;20706;-54
2022/06/04 14:28:32;;;;;;;3.80;2.47;;;;;;;;;;4954787;29;20725;-55
2022/06/04 14:31:01;;;;;;;3.50;2.10;;;;;;;;;;4954868;29;20194;-55
2022/06/04 14:33:27;;;;;;;2.93;2.30;;;;;;;;;;4954578;28;20197;-55
2022/06/04 14:35:57;;;;;;;3.07;2.43;;;;;;;;;;4954697;28;20213;-55
2022/06/04 14:38:25;;;;;;;2.47;2.17;;;;;;;;;;4954804;29;20288;-55
2022/06/04 14:40:58;;;;;;;2.77;2.40;;;;;;;;;;4954654;29;20267;-55
2022/06/04 14:43:33;;;;;;;2.40;2.20;;;;;;;;;;4953589;29;20409;-55
2022/06/04 14:46:11;;;;;;;3.47;2.20;;;;;;;;;;4954584;29;20203;-55
2022/06/04 14:48:53;;;;;;;4.27;2.40;;;;;;;;;;4954532;28;20274;-55
2022/06/04 14:51:28;;;;;;;2.93;2.10;;;;;;;;;;4954669;28;20654;-55
2022/06/04 14:53:56;;;;;;;3.13;2.10;;;;;;;;;;4954764;29;20238;-54
2022/06/04 14:56:32;;;;;;;2.40;2.20;;;;;;;;;;4954717;29;20233;-55
2022/06/04 14:59:10;;;;;;;2.13;1.90;;;;;;;;;;4954565;29;20199;-55
2022/06/04 15:01:47;;;;;;;2.23;2.00;;;;;;;;;;4954402;29;20235;-55
2022/06/04 15:04:39;;;;;;;3.10;2.17;;;;;;;;;;4954170;29;20469;-55
2022/06/04 15:07:11;;;;;;;4.23;2.23;;;;;;;;;;4954413;28;20203;-54
2022/06/04 15:09:53;;;;;;;3.07;2.20;;;;;;;;;;4954222;29;20222;-55
2022/06/04 15:12:31;;;;;;;2.20;2.00;;;;;;;;;;4954550;29;20317;-54